createdAt,value
2023-04-09T00:03:30.285Z,51.20
2023-04-09T00:08:33.915Z,51.75
2023-04-09T00:13:39.743Z,51.30
2023-04-09T00:18:45.053Z,51.57
2023-04-09T00:23:48.236Z,51.49
2023-04-09T00:28:51.978Z,51.13
2023-04-09T00:33:57.398Z,51.65
2023-04-09T00:39:00.846Z,52.17
2023-04-09T00:44:04.268Z,51.90
2023-04-09T00:49:09.142Z,52.51
2023-04-09T00:54:12.630Z,52.14
2023-04-09T00:59:16.773Z,52.31
2023-04-09T01:04:22.863Z,52.68
2023-04-09T01:09:30.617Z,53.08
2023-04-09T01:14:40.331Z,52.95
2023-04-09T01:19:52.442Z,53.34
2023-04-09T01:25:15.788Z,53.52
2023-04-09T01:30:21.741Z,53.13
2023-04-09T01:35:27.385Z,53.14
2023-04-09T01:40:31.151Z,52.57
2023-04-09T01:45:36.460Z,52.76
2023-04-09T01:50:40.505Z,53.59
2023-04-09T01:55:44.052Z,53.31
2023-04-09T02:00:50.100Z,53.47
2023-04-09T02:06:00.891Z,53.40
2023-04-09T02:11:06.993Z,53.49
2023-04-09T02:16:13.749Z,53.75
2023-04-09T02:21:18.728Z,53.26
2023-04-09T02:26:22.146Z,53.50
2023-04-09T02:31:27.306Z,53.74
2023-04-09T02:36:31.207Z,53.61
2023-04-09T02:41:34.664Z,53.56
2023-04-09T02:46:40.225Z,53.93
2023-04-09T02:51:43.733Z,53.68
2023-04-09T02:56:47.211Z,53.59
2023-04-09T03:01:52.136Z,53.59
2023-04-09T03:06:55.458Z,52.87
2023-04-09T03:11:59.021Z,53.32
2023-04-09T03:17:03.913Z,52.92
2023-04-09T03:22:07.085Z,52.63
2023-04-09T03:27:10.574Z,52.62
2023-04-09T03:32:17.843Z,52.56
2023-04-09T03:37:22.451Z,52.17
2023-04-09T03:42:25.975Z,52.01
2023-04-09T03:47:30.927Z,50.82
2023-04-09T03:52:34.085Z,49.90
2023-04-09T03:57:37.604Z,49.94
2023-04-09T04:02:42.782Z,48.36
2023-04-09T04:07:46.414Z,48.28
2023-04-09T04:12:49.867Z,47.27
2023-04-09T04:17:54.741Z,45.95
2023-04-09T04:22:57.888Z,42.57
2023-04-09T04:28:01.558Z,43.15
2023-04-09T04:33:06.479Z,43.54
2023-04-09T04:38:09.713Z,44.09
2023-04-09T04:43:13.106Z,43.56
2023-04-09T04:48:18.037Z,43.47
2023-04-09T04:53:21.493Z,42.43
2023-04-09T04:58:24.985Z,39.42
2023-04-09T05:03:29.968Z,33.43
2023-04-09T05:08:33.532Z,34.08
2023-04-09T05:13:36.985Z,29.92
2023-04-09T05:18:41.798Z,29.30
2023-04-09T05:23:45.211Z,27.82
2023-04-09T05:28:48.758Z,25.85
2023-04-09T05:33:54.353Z,24.20
2023-04-09T05:38:57.805Z,23.57
2023-04-09T05:44:01.431Z,24.80
2023-04-09T05:49:06.377Z,25.03
2023-04-09T05:54:09.896Z,21.21
2023-04-09T05:59:13.418Z,20.71
2023-04-09T06:04:18.526Z,20.04
2023-04-09T06:09:22.267Z,17.91
2023-04-09T06:14:25.823Z,15.90
2023-04-09T06:19:32.986Z,18.80
2023-04-09T06:24:36.639Z,19.36
2023-04-09T06:29:40.150Z,17.58
2023-04-09T06:34:45.130Z,16.88
2023-04-09T06:40:00.471Z,15.77
2023-04-09T06:45:08.657Z,15.74
2023-04-09T06:50:13.676Z,15.22
2023-04-09T06:55:17.134Z,15.32
2023-04-09T07:00:20.272Z,16.36
2023-04-09T07:05:25.374Z,14.00
2023-04-09T07:10:28.831Z,12.81
2023-04-09T07:15:33.727Z,13.32
2023-04-09T07:20:38.669Z,13.10
2023-04-09T07:25:42.487Z,12.25
2023-04-09T07:30:47.152Z,12.61
2023-04-09T07:35:53.263Z,12.28
2023-04-09T07:40:57.022Z,12.13
2023-04-09T07:46:00.485Z,12.28
2023-04-09T07:51:06.323Z,13.20
2023-04-09T07:56:09.842Z,13.13
2023-04-09T08:01:13.458Z,13.32
2023-04-09T08:06:18.694Z,12.99
2023-04-09T08:11:25.389Z,13.10
2023-04-09T08:16:30.386Z,12.77
2023-04-09T08:21:35.939Z,13.99
2023-04-09T08:26:39.700Z,14.77
2023-04-09T08:31:43.609Z,14.34
2023-04-09T08:36:50.049Z,15.19
2023-04-09T08:41:54.078Z,17.35
2023-04-09T08:46:59.175Z,19.34
2023-04-09T08:52:05.077Z,19.96
2023-04-09T08:57:09.217Z,21.08
2023-04-09T09:02:13.187Z,22.65
2023-04-09T09:07:18.538Z,23.06
2023-04-09T09:12:36.238Z,22.80
2023-04-09T09:17:56.125Z,23.75
2023-04-09T09:23:01.712Z,23.30
2023-04-09T09:28:09.782Z,23.32
2023-04-09T09:33:13.847Z,24.40
2023-04-09T09:38:19.359Z,24.22
2023-04-09T09:43:23.221Z,24.68
2023-04-09T09:48:28.324Z,24.67
2023-04-09T09:53:34.563Z,25.11
2023-04-09T09:58:39.949Z,25.07
2023-04-09T10:03:45.583Z,24.77
2023-04-09T10:08:51.246Z,25.12
2023-04-09T10:13:59.027Z,25.28
2023-04-09T10:19:03.651Z,24.60
2023-04-09T10:24:09.832Z,24.53
2023-04-09T10:29:15.171Z,24.32
2023-04-09T10:34:19.653Z,24.13
2023-04-09T10:39:27.265Z,23.62
2023-04-09T10:44:32.106Z,23.93
2023-04-09T10:49:38.427Z,23.68
2023-04-09T10:54:46.102Z,23.19
2023-04-09T10:59:51.909Z,23.90
2023-04-09T11:05:06.845Z,24.18
2023-04-09T11:10:12.126Z,24.63
2023-04-09T11:15:18.948Z,24.57
2023-04-09T11:20:23.819Z,24.63
2023-04-09T11:25:30.464Z,24.60
2023-04-09T11:30:35.206Z,24.49
2023-04-09T11:35:38.852Z,24.62
2023-04-09T11:40:48.904Z,24.81
2023-04-09T11:45:52.913Z,24.75
2023-04-09T11:50:56.667Z,24.49
2023-04-09T11:56:01.760Z,24.44
2023-04-09T12:01:05.333Z,24.66
2023-04-09T12:06:11.039Z,24.85
2023-04-09T12:11:17.158Z,24.79
2023-04-09T12:16:21.878Z,25.22
2023-04-09T12:21:27.145Z,24.98
2023-04-09T12:26:32.097Z,25.09
2023-04-09T12:31:36.270Z,25.40
2023-04-09T12:36:41.639Z,25.85
2023-04-09T12:41:46.489Z,26.16
2023-04-09T12:46:50.279Z,25.89
2023-04-09T12:52:13.802Z,25.97
2023-04-09T12:57:18.674Z,26.36
2023-04-09T13:02:31.988Z,26.70
2023-04-09T13:07:35.627Z,27.44
2023-04-09T13:12:51.602Z,27.96
2023-04-09T13:18:14.768Z,27.36
2023-04-09T13:23:26.977Z,28.55
2023-04-09T13:28:31.848Z,30.87
2023-04-09T13:33:55.439Z,31.61
2023-04-09T13:39:04.386Z,30.79
2023-04-09T13:44:28.111Z,32.86
2023-04-09T13:49:51.606Z,32.92
2023-04-09T13:55:13.614Z,32.86
2023-04-09T14:00:37.370Z,33.22
2023-04-09T14:05:41.040Z,34.40
2023-04-09T14:10:44.526Z,34.67
2023-04-09T14:15:50.225Z,35.29
2023-04-09T14:20:56.114Z,34.83
2023-04-09T14:25:59.686Z,34.92
2023-04-09T14:31:04.918Z,34.80
2023-04-09T14:36:09.181Z,34.31
2023-04-09T14:41:12.714Z,34.55
2023-04-09T14:46:17.722Z,34.16
2023-04-09T14:51:21.307Z,33.90
2023-04-09T14:56:25.581Z,33.88
2023-04-09T15:01:32.570Z,34.07
2023-04-09T15:06:36.633Z,33.52
2023-04-09T15:11:40.116Z,34.05
2023-04-09T15:16:45.074Z,33.58
2023-04-09T15:21:48.644Z,33.63
2023-04-09T15:26:52.195Z,34.09
2023-04-09T15:31:57.151Z,34.35
2023-04-09T15:37:00.740Z,35.60
2023-04-09T15:42:04.456Z,35.52
2023-04-09T15:47:09.648Z,35.23
2023-04-09T15:52:13.293Z,35.34
2023-04-09T15:57:16.740Z,36.10
2023-04-09T16:02:23.506Z,35.94
2023-04-09T16:07:28.889Z,36.72
2023-04-09T16:12:32.427Z,36.97
2023-04-09T16:17:40.804Z,37.17
2023-04-09T16:22:44.834Z,38.54
2023-04-09T16:27:48.293Z,40.16
2023-04-09T16:32:53.151Z,40.78
2023-04-09T16:37:56.847Z,41.35
2023-04-09T16:43:00.474Z,41.97
2023-04-09T16:48:06.478Z,42.74
2023-04-09T16:53:10.200Z,42.93
2023-04-09T16:58:13.726Z,43.95
2023-04-09T17:03:18.750Z,44.38
2023-04-09T17:08:24.519Z,44.99
2023-04-09T17:13:28.029Z,45.07
2023-04-09T17:18:32.960Z,45.52
2023-04-09T17:23:36.437Z,46.18
2023-04-09T17:28:39.918Z,47.34
2023-04-09T17:33:47.229Z,47.40
2023-04-09T17:38:52.330Z,47.07
2023-04-09T17:43:56.529Z,47.91
2023-04-09T17:49:01.763Z,47.85
2023-04-09T17:54:05.564Z,48.49
2023-04-09T17:59:08.985Z,48.44
2023-04-09T18:04:14.101Z,49.44
2023-04-09T18:09:17.820Z,49.37
2023-04-09T18:14:21.420Z,49.53
2023-04-09T18:19:26.520Z,50.53
2023-04-09T18:24:30.395Z,50.87
2023-04-09T18:29:33.853Z,50.95
2023-04-09T18:34:38.733Z,51.42
2023-04-09T18:39:42.046Z,51.04
2023-04-09T18:44:45.892Z,51.42
2023-04-09T18:49:50.945Z,51.72
2023-04-09T18:54:54.461Z,51.84
2023-04-09T18:59:57.920Z,52.21
2023-04-09T19:05:03.458Z,52.25
2023-04-09T19:10:07.779Z,52.46
2023-04-09T19:15:12.469Z,52.04
2023-04-09T19:20:17.615Z,51.95
2023-04-09T19:25:21.578Z,52.50
2023-04-09T19:30:25.050Z,52.12
2023-04-09T19:35:30.175Z,51.76
2023-04-09T19:40:33.780Z,52.55
2023-04-09T19:45:37.928Z,52.05
2023-04-09T19:50:43.663Z,52.71
2023-04-09T19:55:47.200Z,52.23
2023-04-09T20:00:51.430Z,51.77
2023-04-09T20:05:56.539Z,52.61
2023-04-09T20:11:00.001Z,52.11
2023-04-09T20:16:03.881Z,51.96
2023-04-09T20:21:09.430Z,51.36
2023-04-09T20:26:13.721Z,51.17
2023-04-09T20:31:17.332Z,51.32
2023-04-09T20:36:22.317Z,51.70
2023-04-09T20:41:25.495Z,50.35
2023-04-09T20:46:28.966Z,50.81
2023-04-09T20:51:33.865Z,51.83
2023-04-09T20:56:37.176Z,50.51
2023-04-09T21:01:40.742Z,51.03
2023-04-09T21:06:45.748Z,51.63
2023-04-09T21:11:48.878Z,50.87
2023-04-09T21:16:52.628Z,51.54
2023-04-09T21:21:57.729Z,51.05
2023-04-09T21:27:01.854Z,50.52
2023-04-09T21:32:05.374Z,51.72
2023-04-09T21:37:10.382Z,51.60
2023-04-09T21:42:13.910Z,52.43
2023-04-09T21:47:17.404Z,51.96
2023-04-09T21:52:22.597Z,52.38
2023-04-09T21:57:26.210Z,52.44
2023-04-09T22:02:29.824Z,52.22
2023-04-09T22:07:36.208Z,51.79
2023-04-09T22:12:39.734Z,52.51
2023-04-09T22:17:43.253Z,52.26
2023-04-09T22:22:48.478Z,52.46
2023-04-09T22:27:53.484Z,52.72
2023-04-09T22:32:57.086Z,52.92
2023-04-09T22:38:03.399Z,53.00
2023-04-09T22:43:07.590Z,53.37
2023-04-09T22:48:11.113Z,53.30
2023-04-09T22:53:19.226Z,52.23
2023-04-09T22:58:23.201Z,53.36
2023-04-09T23:03:27.128Z,53.94
2023-04-09T23:08:32.065Z,53.92
2023-04-09T23:13:35.790Z,54.53
2023-04-09T23:18:39.269Z,54.75
2023-04-09T23:23:44.171Z,55.15
2023-04-09T23:28:47.352Z,54.74
2023-04-09T23:33:52.066Z,53.45
2023-04-09T23:38:56.981Z,53.17
2023-04-09T23:44:00.501Z,53.28
2023-04-09T23:49:04.097Z,52.68
2023-04-09T23:54:09.014Z,53.10
2023-04-09T23:59:12.937Z,52.27
